Time;durP1;ratioP1;P1;durP2;ratioP2;P2;SDS_P1;SDS_P2;PMS_P1;PMS_P2;Temp;Humidity;BMP_temperature;BMP_pressure;BME280_temperature;BME280_humidity;BME280_pressure;Samples;Min_cycle;Max_cycle;Signal;HPM_P1;HPM_P2
2022/09/22 00:01:52;;;;;;;;;;;10.10;99.90;;;;;;4147442;28;19975;-63
2022/09/22 00:03:54;;;;;;;;;;;10.10;99.90;;;;;;4148306;28;20412;-63
2022/09/22 00:06:15;;;;;;;;;;;10.10;99.90;;;;;;4147705;28;19905;-63
2022/09/22 00:08:16;;;;;;;;;;;10.10;99.90;;;;;;4148416;28;19906;-63
2022/09/22 00:10:20;;;;;;;;;;;10.10;99.90;;;;;;4145842;28;19923;-62
2022/09/22 00:12:21;;;;;;;;;;;10.10;99.90;;;;;;4149599;28;19913;-64
2022/09/22 00:14:23;;;;;;;;;;;10.10;99.90;;;;;;4148020;28;19913;-63
2022/09/22 00:16:26;;;;;;;;;;;10.10;99.90;;;;;;4145895;28;19906;-64
2022/09/22 00:18:27;;;;;;;;;;;10.10;99.90;;;;;;4148721;28;20362;-63
2022/09/22 00:20:28;;;;;;;;;;;10.10;99.90;;;;;;4147384;28;19960;-63
2022/09/22 00:22:29;;;;;;;;;;;10.10;99.90;;;;;;4147917;28;19909;-63
2022/09/22 00:24:30;;;;;;;;;;;10.10;99.90;;;;;;4147057;28;19913;-62
2022/09/22 00:26:32;;;;;;;;;;;10.00;99.90;;;;;;4147764;28;19921;-62
2022/09/22 00:28:33;;;;;;;;;;;10.10;99.90;;;;;;4146909;28;20376;-63
2022/09/22 00:30:38;;;;;;;;;;;10.10;99.90;;;;;;4147757;28;20449;-63
2022/09/22 00:32:39;;;;;;;;;;;10.10;99.90;;;;;;4149009;28;19921;-62
2022/09/22 00:34:40;;;;;;;;;;;10.10;99.90;;;;;;4164433;28;20011;-63
2022/09/22 00:36:41;;;;;;;;;;;10.10;99.90;;;;;;4162101;28;20345;-63
2022/09/22 00:38:42;;;;;;;;;;;10.10;99.90;;;;;;4155238;28;19909;-63
2022/09/22 00:40:43;;;;;;;;;;;10.20;99.90;;;;;;4159924;28;20015;-62
2022/09/22 00:42:44;;;;;;;;;;;10.20;99.90;;;;;;4152386;28;20017;-63
2022/09/22 00:44:45;;;;;;;;;;;10.20;99.90;;;;;;4146639;28;20364;-63
2022/09/22 00:46:48;;;;;;;;;;;10.20;99.90;;;;;;4147339;28;19905;-63
2022/09/22 00:48:51;;;;;;;;;;;10.20;99.90;;;;;;4147038;28;19909;-64
2022/09/22 00:50:53;;;;;;;;;;;10.20;99.90;;;;;;4194387;28;20315;-63
2022/09/22 00:52:59;;;;;;;;;;;10.20;99.90;;;;;;4163719;28;20353;-65
2022/09/22 00:55:02;;;;;;;;;;;10.20;99.90;;;;;;4163195;28;20377;-63
2022/09/22 00:57:29;;;;;;;;;;;10.20;99.90;;;;;;4163682;28;19979;-62
2022/09/22 00:59:30;;;;;;;;;;;10.20;99.90;;;;;;4160374;28;19912;-64
2022/09/22 01:01:35;;;;;;;;;;;10.20;99.90;;;;;;4163378;28;19917;-62
2022/09/22 01:03:38;;;;;;;;;;;10.30;99.90;;;;;;4162930;28;19967;-63
2022/09/22 01:05:41;;;;;;;;;;;10.20;99.90;;;;;;4163908;28;19913;-63
2022/09/22 01:07:42;;;;;;;;;;;10.30;99.90;;;;;;4159993;28;19971;-62
2022/09/22 01:09:43;;;;;;;;;;;10.20;99.90;;;;;;4147520;28;20344;-63
2022/09/22 01:11:44;;;;;;;;;;;10.20;99.90;;;;;;4146108;28;19905;-64
2022/09/22 01:13:57;;;;;;;;;;;10.20;99.90;;;;;;4147427;28;19905;-64
2022/09/22 01:16:01;;;;;;;;;;;10.20;99.90;;;;;;4146132;28;19913;-63
2022/09/22 01:18:22;;;;;;;;;;;10.20;99.90;;;;;;4147252;28;19913;-64
2022/09/22 01:20:32;;;;;;;;;;;10.10;99.90;;;;;;4150942;28;19905;-64
2022/09/22 01:22:46;;;;;;;;;;;10.20;99.90;;;;;;4194889;28;20704;-63
2022/09/22 01:25:06;;;;;;;;;;;10.20;99.90;;;;;;4162500;28;19950;-65
2022/09/22 01:27:42;;;;;;;;;;;10.10;99.90;;;;;;4161984;28;19963;-64
2022/09/22 01:29:45;;;;;;;;;;;10.10;99.90;;;;;;4112012;28;20445;-65
2022/09/22 01:31:54;;;;;;;;;;;10.10;99.90;;;;;;4131800;28;19913;-65
2022/09/22 01:34:01;;;;;;;;;;;10.10;99.90;;;;;;4146133;28;19910;-66
2022/09/22 01:36:02;;;;;;;;;;;10.10;99.90;;;;;;4147050;28;20350;-66
2022/09/22 01:38:03;;;;;;;;;;;10.10;99.90;;;;;;4145831;28;20016;-62
2022/09/22 01:40:07;;;;;;;;;;;10.10;99.90;;;;;;4148095;28;19937;-64
2022/09/22 01:42:08;;;;;;;;;;;10.10;99.90;;;;;;4147329;28;19908;-64
2022/09/22 01:44:15;;;;;;;;;;;10.10;99.90;;;;;;4149414;28;19909;-63
2022/09/22 01:46:20;;;;;;;;;;;10.10;99.90;;;;;;4155384;28;20692;-64
2022/09/22 01:48:24;;;;;;;;;;;10.20;99.90;;;;;;4163311;28;19913;-65
2022/09/22 01:50:30;;;;;;;;;;;10.10;99.90;;;;;;4161893;28;19975;-65
2022/09/22 01:52:32;;;;;;;;;;;10.10;99.90;;;;;;4163092;28;19909;-64
2022/09/22 01:54:41;;;;;;;;;;;10.10;99.90;;;;;;4162082;28;19917;-64
2022/09/22 01:56:44;;;;;;;;;;;10.10;99.90;;;;;;4162090;28;20320;-64
2022/09/22 01:58:47;;;;;;;;;;;10.10;99.90;;;;;;4161989;28;19913;-63
2022/09/22 02:00:53;;;;;;;;;;;10.10;99.90;;;;;;4162798;28;19951;-64
2022/09/22 02:02:59;;;;;;;;;;;10.10;99.90;;;;;;4161942;28;20358;-62
2022/09/22 02:05:03;;;;;;;;;;;10.10;99.90;;;;;;4163187;28;20346;-64
2022/09/22 02:07:06;;;;;;;;;;;10.10;99.90;;;;;;4162279;28;19913;-64
2022/09/22 02:09:16;;;;;;;;;;;10.10;99.90;;;;;;4162605;28;20320;-64
2022/09/22 02:11:16;;;;;;;;;;;10.10;99.90;;;;;;4154980;28;19959;-64
2022/09/22 02:13:17;;;;;;;;;;;10.10;99.90;;;;;;4160838;28;19940;-63
2022/09/22 02:17:38;;;;;;;;;;;10.10;99.90;;;;;;4162377;28;19963;-63
2022/09/22 02:19:40;;;;;;;;;;;10.10;99.90;;;;;;4162115;28;19951;-63
2022/09/22 02:21:43;;;;;;;;;;;10.00;99.90;;;;;;4162070;28;19905;-63
2022/09/22 02:23:45;;;;;;;;;;;10.00;99.90;;;;;;4162258;28;19951;-62
2022/09/22 02:25:46;;;;;;;;;;;10.00;99.90;;;;;;4154679;28;19952;-62
2022/09/22 02:27:49;;;;;;;;;;;10.00;99.90;;;;;;4146184;28;19909;-63
2022/09/22 02:29:53;;;;;;;;;;;10.00;99.90;;;;;;4158395;28;20312;-64
2022/09/22 02:31:55;;;;;;;;;;;10.00;99.90;;;;;;4162660;28;19917;-65
2022/09/22 02:33:56;;;;;;;;;;;10.00;99.90;;;;;;4161390;28;19905;-64
2022/09/22 02:36:09;;;;;;;;;;;10.00;99.90;;;;;;4162781;28;20308;-63
2022/09/22 02:38:18;;;;;;;;;;;9.90;99.90;;;;;;4160225;28;19964;-63
2022/09/22 02:40:37;;;;;;;;;;;9.90;99.90;;;;;;4145975;28;20333;-62
2022/09/22 02:42:41;;;;;;;;;;;10.00;99.90;;;;;;4145223;28;19906;-63
2022/09/22 02:45:02;;;;;;;;;;;10.00;99.90;;;;;;4155381;28;19909;-63
2022/09/22 02:47:06;;;;;;;;;;;10.00;99.90;;;;;;4159304;28;19947;-64
2022/09/22 02:49:13;;;;;;;;;;;10.00;99.90;;;;;;4162396;28;20333;-63
2022/09/22 02:51:15;;;;;;;;;;;10.00;99.90;;;;;;4160603;28;19913;-63
2022/09/22 02:53:16;;;;;;;;;;;9.90;99.90;;;;;;4162270;28;19909;-62
2022/09/22 02:55:17;;;;;;;;;;;10.00;99.90;;;;;;4161205;28;19963;-64
2022/09/22 02:57:19;;;;;;;;;;;10.00;99.90;;;;;;4162244;28;19931;-63
2022/09/22 02:59:20;;;;;;;;;;;10.00;99.90;;;;;;4161163;28;19955;-62
2022/09/22 03:01:21;;;;;;;;;;;10.00;99.90;;;;;;4190707;28;19975;-62
2022/09/22 03:03:21;;;;;;;;;;;10.00;99.90;;;;;;4161058;28;19991;-62
2022/09/22 03:05:22;;;;;;;;;;;9.90;99.90;;;;;;4161418;28;20418;-63
2022/09/22 03:07:23;;;;;;;;;;;10.00;99.90;;;;;;4159549;28;19951;-63
2022/09/22 03:09:24;;;;;;;;;;;9.90;99.90;;;;;;4159500;28;20035;-64
2022/09/22 03:11:26;;;;;;;;;;;10.00;99.90;;;;;;4162888;28;20362;-63
2022/09/22 03:13:27;;;;;;;;;;;10.00;99.90;;;;;;4164645;28;19967;-62
2022/09/22 03:15:28;;;;;;;;;;;10.00;99.90;;;;;;4161815;28;19905;-64
2022/09/22 03:17:30;;;;;;;;;;;10.00;99.90;;;;;;4148162;28;19909;-63
2022/09/22 03:19:31;;;;;;;;;;;10.00;99.90;;;;;;4148849;28;19909;-62
2022/09/22 03:21:32;;;;;;;;;;;10.00;99.90;;;;;;4146530;28;19905;-61
2022/09/22 03:23:33;;;;;;;;;;;10.00;99.90;;;;;;4149099;28;19913;-62
2022/09/22 03:25:34;;;;;;;;;;;10.00;99.90;;;;;;4146482;28;19916;-63
2022/09/22 03:27:35;;;;;;;;;;;10.00;99.90;;;;;;4158354;28;20380;-62
2022/09/22 03:29:36;;;;;;;;;;;10.00;99.90;;;;;;4164310;28;19909;-63
2022/09/22 03:31:37;;;;;;;;;;;10.00;99.90;;;;;;4165061;28;20313;-64
2022/09/22 03:33:38;;;;;;;;;;;10.00;99.90;;;;;;4163956;28;19909;-62
2022/09/22 03:35:40;;;;;;;;;;;10.00;99.90;;;;;;4164828;28;19968;-63
2022/09/22 03:37:41;;;;;;;;;;;10.00;99.90;;;;;;4164634;28;19909;-63
2022/09/22 03:39:42;;;;;;;;;;;9.90;99.90;;;;;;4162879;28;20288;-63
2022/09/22 03:41:43;;;;;;;;;;;9.90;99.90;;;;;;4152631;28;19917;-63
2022/09/22 03:43:44;;;;;;;;;;;9.90;99.90;;;;;;4153042;28;19971;-61
2022/09/22 03:45:45;;;;;;;;;;;9.90;99.90;;;;;;4172001;28;20404;-65
2022/09/22 03:47:46;;;;;;;;;;;9.90;99.90;;;;;;4163915;28;19905;-63
2022/09/22 03:49:47;;;;;;;;;;;9.90;99.90;;;;;;4179416;28;19913;-63
2022/09/22 03:51:48;;;;;;;;;;;9.90;99.90;;;;;;4180208;28;19917;-63
2022/09/22 03:53:49;;;;;;;;;;;9.90;99.90;;;;;;4181436;28;19994;-62
2022/09/22 03:55:50;;;;;;;;;;;9.90;99.90;;;;;;4180072;28;19944;-63
2022/09/22 03:57:51;;;;;;;;;;;9.90;99.90;;;;;;4169394;28;19970;-63
2022/09/22 03:59:52;;;;;;;;;;;9.90;99.90;;;;;;4162828;28;19978;-65
2022/09/22 04:01:53;;;;;;;;;;;9.90;99.90;;;;;;4149836;28;20424;-64
2022/09/22 04:03:54;;;;;;;;;;;9.90;99.90;;;;;;4160584;28;19919;-65
2022/09/22 04:05:55;;;;;;;;;;;9.90;99.90;;;;;;4193686;28;19908;-65
2022/09/22 04:07:56;;;;;;;;;;;9.90;99.90;;;;;;4147854;28;19931;-64
2022/09/22 04:09:57;;;;;;;;;;;9.90;99.90;;;;;;4152468;28;19951;-64
2022/09/22 04:11:58;;;;;;;;;;;9.90;99.90;;;;;;4185795;28;20335;-63
2022/09/22 04:14:00;;;;;;;;;;;9.90;99.90;;;;;;4163472;28;19919;-64
2022/09/22 04:16:01;;;;;;;;;;;9.90;99.90;;;;;;4149480;28;19906;-65
2022/09/22 04:18:02;;;;;;;;;;;9.90;99.90;;;;;;4150435;28;19967;-63
2022/09/22 04:20:04;;;;;;;;;;;10.00;99.90;;;;;;4162539;28;20350;-63
2022/09/22 04:22:05;;;;;;;;;;;10.00;99.90;;;;;;4162434;28;19905;-64
2022/09/22 04:24:10;;;;;;;;;;;10.00;99.90;;;;;;4152942;28;20296;-64
2022/09/22 04:26:10;;;;;;;;;;;10.00;99.90;;;;;;4150928;28;19913;-64
2022/09/22 04:28:11;;;;;;;;;;;10.00;99.90;;;;;;4147579;28;19905;-65
2022/09/22 04:30:12;;;;;;;;;;;10.00;99.90;;;;;;4146445;28;19909;-65
2022/09/22 04:32:14;;;;;;;;;;;10.00;99.90;;;;;;4147674;28;20016;-66
2022/09/22 04:34:15;;;;;;;;;;;10.00;99.90;;;;;;4146644;28;19915;-65
2022/09/22 04:36:15;;;;;;;;;;;10.00;99.90;;;;;;4147673;28;19917;-64
2022/09/22 04:38:17;;;;;;;;;;;10.00;99.90;;;;;;4153375;28;19909;-62
2022/09/22 04:40:18;;;;;;;;;;;10.00;99.90;;;;;;4147118;28;19976;-64
2022/09/22 04:42:19;;;;;;;;;;;10.00;99.90;;;;;;4160545;28;20450;-63
2022/09/22 04:44:20;;;;;;;;;;;10.00;99.90;;;;;;4157641;28;19913;-65
2022/09/22 04:46:21;;;;;;;;;;;10.00;99.90;;;;;;4155484;28;19910;-63
2022/09/22 04:48:22;;;;;;;;;;;10.10;99.90;;;;;;4145786;28;20317;-64
2022/09/22 04:50:23;;;;;;;;;;;10.10;99.90;;;;;;4147460;28;20020;-66
2022/09/22 04:52:24;;;;;;;;;;;10.10;99.90;;;;;;4145986;28;19971;-63
2022/09/22 04:54:25;;;;;;;;;;;10.10;99.90;;;;;;4152595;28;19909;-64
2022/09/22 04:56:26;;;;;;;;;;;10.10;99.90;;;;;;4149817;28;19920;-62
2022/09/22 04:58:27;;;;;;;;;;;10.10;99.90;;;;;;4147386;28;20284;-63
2022/09/22 05:00:28;;;;;;;;;;;10.10;99.90;;;;;;4148102;28;19916;-64
2022/09/22 05:02:29;;;;;;;;;;;10.10;99.90;;;;;;4155324;28;19921;-62
2022/09/22 05:04:30;;;;;;;;;;;10.20;99.90;;;;;;4160653;28;19909;-64
2022/09/22 05:06:31;;;;;;;;;;;10.20;99.90;;;;;;4163607;28;19959;-65
2022/09/22 05:08:32;;;;;;;;;;;10.20;99.90;;;;;;4154177;28;20352;-63
2022/09/22 05:10:35;;;;;;;;;;;10.20;99.90;;;;;;4146528;28;19960;-63
2022/09/22 05:12:41;;;;;;;;;;;10.20;99.90;;;;;;4144736;28;19917;-64
2022/09/22 05:14:42;;;;;;;;;;;10.20;99.90;;;;;;4144952;28;20066;-64
2022/09/22 05:16:43;;;;;;;;;;;10.20;99.90;;;;;;4145415;28;20297;-62
2022/09/22 05:18:44;;;;;;;;;;;10.20;99.90;;;;;;4145762;28;19905;-63
2022/09/22 05:20:46;;;;;;;;;;;10.20;99.90;;;;;;4146802;28;20332;-63
2022/09/22 05:22:47;;;;;;;;;;;10.20;99.90;;;;;;4144275;28;19929;-64
2022/09/22 05:24:48;;;;;;;;;;;10.20;99.90;;;;;;4146802;28;20254;-63
2022/09/22 05:26:49;;;;;;;;;;;10.20;99.90;;;;;;4145538;28;19955;-64
2022/09/22 05:28:50;;;;;;;;;;;10.20;99.90;;;;;;4146841;28;20428;-63
2022/09/22 05:30:51;;;;;;;;;;;10.30;99.90;;;;;;4145266;28;20337;-62
2022/09/22 05:32:52;;;;;;;;;;;10.30;99.90;;;;;;4146624;28;19905;-64
2022/09/22 05:34:54;;;;;;;;;;;10.30;99.90;;;;;;4144988;28;19972;-65
2022/09/22 05:36:55;;;;;;;;;;;10.30;99.90;;;;;;4146448;28;19909;-63
2022/09/22 05:38:56;;;;;;;;;;;10.30;99.90;;;;;;4145580;28;19940;-67
2022/09/22 05:40:57;;;;;;;;;;;10.40;99.90;;;;;;4146020;28;19909;-64
2022/09/22 05:42:58;;;;;;;;;;;10.40;99.90;;;;;;4145717;28;19917;-66
2022/09/22 05:44:59;;;;;;;;;;;10.40;99.90;;;;;;4145541;28;20414;-64
2022/09/22 05:47:00;;;;;;;;;;;10.40;99.90;;;;;;4146071;28;19956;-65
2022/09/22 05:49:01;;;;;;;;;;;10.40;99.90;;;;;;4145368;28;19906;-64
2022/09/22 05:51:02;;;;;;;;;;;10.40;99.90;;;;;;4145818;28;19913;-64
2022/09/22 05:53:09;;;;;;;;;;;10.40;99.90;;;;;;4145495;28;19906;-66
2022/09/22 05:55:11;;;;;;;;;;;10.50;99.90;;;;;;4144735;28;19975;-64
2022/09/22 05:57:12;;;;;;;;;;;10.50;99.90;;;;;;4145180;28;19995;-66
2022/09/22 05:59:13;;;;;;;;;;;10.50;99.90;;;;;;4146298;28;19909;-64
2022/09/22 06:01:14;;;;;;;;;;;10.60;99.90;;;;;;4144622;28;19928;-63
2022/09/22 06:03:15;;;;;;;;;;;10.60;99.90;;;;;;4146329;28;19910;-64
2022/09/22 06:05:16;;;;;;;;;;;10.60;99.90;;;;;;4145035;28;19920;-64
2022/09/22 06:07:20;;;;;;;;;;;10.60;99.90;;;;;;4146530;28;19960;-64
2022/09/22 06:09:21;;;;;;;;;;;10.70;99.90;;;;;;4145181;28;20370;-65
2022/09/22 06:11:22;;;;;;;;;;;10.70;99.90;;;;;;4145664;28;20058;-64
2022/09/22 06:13:23;;;;;;;;;;;10.70;99.90;;;;;;4145320;28;19948;-67
2022/09/22 06:15:25;;;;;;;;;;;10.70;99.90;;;;;;4145477;28;19905;-64
2022/09/22 06:17:26;;;;;;;;;;;10.80;99.90;;;;;;4145538;28;20444;-65
2022/09/22 06:19:28;;;;;;;;;;;10.80;99.90;;;;;;4145377;28;19909;-66
2022/09/22 06:21:29;;;;;;;;;;;10.80;99.90;;;;;;4145688;28;19909;-64
2022/09/22 06:23:30;;;;;;;;;;;10.90;99.90;;;;;;4145036;28;19909;-63
2022/09/22 06:25:31;;;;;;;;;;;11.00;99.90;;;;;;4145707;28;19906;-64
2022/09/22 06:27:32;;;;;;;;;;;11.10;99.90;;;;;;4144747;28;19909;-64
2022/09/22 06:29:33;;;;;;;;;;;11.20;99.90;;;;;;4145716;28;20011;-63
2022/09/22 06:31:34;;;;;;;;;;;11.40;99.90;;;;;;4144780;28;19967;-65
2022/09/22 06:33:35;;;;;;;;;;;11.40;99.90;;;;;;4145798;28;20320;-66
2022/09/22 06:35:36;;;;;;;;;;;11.40;99.90;;;;;;4144852;28;19905;-64
2022/09/22 06:37:39;;;;;;;;;;;11.40;99.90;;;;;;4146180;28;19909;-63
2022/09/22 06:39:40;;;;;;;;;;;11.40;99.90;;;;;;4144946;28;19913;-64
2022/09/22 06:41:43;;;;;;;;;;;11.40;99.90;;;;;;4145666;28;19905;-63
2022/09/22 06:43:46;;;;;;;;;;;11.40;99.90;;;;;;4144877;28;19905;-64
2022/09/22 06:45:49;;;;;;;;;;;11.40;99.90;;;;;;4144603;28;20381;-63
2022/09/22 06:47:51;;;;;;;;;;;11.40;99.90;;;;;;4144943;28;19952;-62
2022/09/22 06:49:52;;;;;;;;;;;11.40;99.90;;;;;;4145157;28;19910;-61
2022/09/22 06:51:53;;;;;;;;;;;11.50;99.90;;;;;;4144102;28;19995;-63
2022/09/22 06:53:55;;;;;;;;;;;11.50;99.90;;;;;;4144717;28;19905;-63
2022/09/22 06:55:59;;;;;;;;;;;11.40;99.90;;;;;;4145583;28;19959;-63
2022/09/22 06:58:01;;;;;;;;;;;11.40;99.90;;;;;;4144793;28;19905;-63
2022/09/22 07:00:03;;;;;;;;;;;11.40;99.90;;;;;;4145667;28;19906;-63
2022/09/22 07:02:06;;;;;;;;;;;11.40;99.90;;;;;;4144156;28;19918;-63
2022/09/22 07:04:07;;;;;;;;;;;11.40;99.90;;;;;;4145203;28;19955;-63
2022/09/22 07:06:08;;;;;;;;;;;11.50;99.90;;;;;;4144373;28;19905;-63
2022/09/22 07:08:09;;;;;;;;;;;11.50;99.90;;;;;;4145707;28;19955;-64
2022/09/22 07:10:10;;;;;;;;;;;11.50;99.90;;;;;;4144462;28;19909;-62
2022/09/22 07:12:11;;;;;;;;;;;11.50;99.90;;;;;;4145248;28;19913;-63
2022/09/22 07:14:11;;;;;;;;;;;11.60;99.90;;;;;;4144554;28;19951;-63
2022/09/22 07:16:17;;;;;;;;;;;11.60;99.90;;;;;;4145164;28;19917;-65
2022/09/22 07:18:18;;;;;;;;;;;11.60;99.90;;;;;;4144487;28;20350;-63
2022/09/22 07:20:20;;;;;;;;;;;11.60;99.90;;;;;;4145085;28;19940;-62
2022/09/22 07:22:22;;;;;;;;;;;11.70;99.90;;;;;;4144897;28;21287;-64
2022/09/22 07:24:22;;;;;;;;;;;11.70;99.90;;;;;;4144796;28;19905;-62
2022/09/22 07:26:27;;;;;;;;;;;11.70;99.90;;;;;;4144659;28;19996;-64
2022/09/22 07:28:30;;;;;;;;;;;11.80;99.90;;;;;;4144235;28;19909;-63
2022/09/22 07:30:33;;;;;;;;;;;11.90;99.90;;;;;;4145169;28;20259;-63
2022/09/22 07:32:34;;;;;;;;;;;12.10;99.90;;;;;;4144395;28;20377;-63
2022/09/22 07:34:34;;;;;;;;;;;12.30;99.90;;;;;;4145447;28;19905;-63
2022/09/22 07:36:38;;;;;;;;;;;12.50;99.90;;;;;;4144304;28;20313;-63
2022/09/22 07:38:40;;;;;;;;;;;12.70;99.90;;;;;;4145793;28;19952;-62
2022/09/22 07:40:50;;;;;;;;;;;12.80;99.90;;;;;;4144112;28;19959;-63
2022/09/22 07:42:50;;;;;;;;;;;12.90;99.90;;;;;;4145232;28;19925;-62
2022/09/22 07:47:11;;;;;;;;;;;13.30;99.90;;;;;;4145240;28;19963;-63
2022/09/22 07:49:14;;;;;;;;;;;13.40;99.90;;;;;;4144095;28;20354;-63
2022/09/22 07:51:22;;;;;;;;;;;13.40;99.90;;;;;;4145266;28;19931;-63
2022/09/22 07:53:22;;;;;;;;;;;13.40;99.90;;;;;;4143851;28;19913;-62
2022/09/22 07:55:24;;;;;;;;;;;13.40;99.90;;;;;;4145115;28;19909;-62
2022/09/22 07:57:25;;;;;;;;;;;13.40;99.90;;;;;;4145333;28;19964;-62
2022/09/22 07:59:26;;;;;;;;;;;13.30;99.90;;;;;;4147767;28;19912;-63
2022/09/22 08:01:27;;;;;;;;;;;13.30;99.90;;;;;;4146962;28;20019;-63
2022/09/22 08:03:28;;;;;;;;;;;13.30;99.90;;;;;;4146032;28;19909;-63
2022/09/22 08:05:29;;;;;;;;;;;13.20;99.90;;;;;;4147521;28;19905;-63
2022/09/22 08:07:35;;;;;;;;;;;13.10;99.90;;;;;;4147037;28;19906;-62
2022/09/22 08:09:36;;;;;;;;;;;13.10;99.90;;;;;;4147989;28;19979;-64
2022/09/22 08:11:37;;;;;;;;;;;13.20;99.90;;;;;;4146754;28;20117;-64
2022/09/22 08:13:38;;;;;;;;;;;13.10;99.90;;;;;;4147998;28;19967;-64
2022/09/22 08:15:41;;;;;;;;;;;13.20;99.90;;;;;;4146499;28;19906;-67
2022/09/22 08:17:42;;;;;;;;;;;13.30;99.90;;;;;;4147903;28;19972;-62
2022/09/22 08:19:44;;;;;;;;;;;13.40;99.90;;;;;;4146725;28;19909;-63
2022/09/22 08:21:46;;;;;;;;;;;13.40;99.90;;;;;;4147409;28;19906;-65
2022/09/22 08:23:52;;;;;;;;;;;13.50;99.90;;;;;;4146645;28;20320;-64
2022/09/22 08:25:53;;;;;;;;;;;13.50;99.90;;;;;;4146339;28;20356;-62
2022/09/22 08:27:54;;;;;;;;;;;13.40;99.90;;;;;;4146150;28;19971;-63
2022/09/22 08:29:55;;;;;;;;;;;13.40;99.90;;;;;;4147281;28;19914;-63
2022/09/22 08:31:56;;;;;;;;;;;13.40;99.90;;;;;;4146098;28;19928;-62
2022/09/22 08:33:56;;;;;;;;;;;13.50;99.90;;;;;;4145583;28;20266;-64
2022/09/22 08:36:02;;;;;;;;;;;13.60;99.90;;;;;;4146815;28;19916;-63
2022/09/22 08:38:02;;;;;;;;;;;13.60;99.90;;;;;;4146799;28;19909;-63
2022/09/22 08:40:04;;;;;;;;;;;13.60;99.90;;;;;;4147200;28;19902;-64
2022/09/22 08:42:09;;;;;;;;;;;13.70;99.90;;;;;;4146474;28;19967;-64
2022/09/22 08:44:10;;;;;;;;;;;13.70;99.90;;;;;;4147371;28;19910;-63
2022/09/22 08:46:11;;;;;;;;;;;13.60;99.90;;;;;;4146140;28;19939;-63
2022/09/22 08:52:58;;;;;;;;;;;13.70;99.90;;;;;;4146506;28;19983;-62
2022/09/22 08:54:59;;;;;;;;;;;13.90;99.90;;;;;;4146372;28;19909;-63
2022/09/22 08:57:20;;;;;;;;;;;13.90;99.90;;;;;;4145497;28;20356;-63
2022/09/22 08:59:22;;;;;;;;;;;13.90;99.90;;;;;;4146141;28;19979;-63
2022/09/22 09:01:23;;;;;;;;;;;13.70;99.90;;;;;;4146749;28;19921;-63
2022/09/22 09:03:35;;;;;;;;;;;13.70;99.90;;;;;;4146051;28;20016;-64
2022/09/22 09:05:49;;;;;;;;;;;13.80;99.90;;;;;;4146916;28;19909;-63
2022/09/22 09:07:57;;;;;;;;;;;13.70;99.90;;;;;;4145940;28;19905;-63
2022/09/22 09:10:14;;;;;;;;;;;13.70;99.90;;;;;;4146648;28;19914;-63
2022/09/22 09:12:33;;;;;;;;;;;13.60;99.90;;;;;;4144045;28;19959;-63
2022/09/22 09:14:43;;;;;;;;;;;13.50;99.90;;;;;;4146093;28;19906;-63
2022/09/22 09:16:50;;;;;;;;;;;13.20;99.90;;;;;;4145814;28;20351;-65
2022/09/22 09:18:59;;;;;;;;;;;13.10;99.90;;;;;;4146569;28;19955;-63
2022/09/22 09:21:02;;;;;;;;;;;13.10;99.90;;;;;;4145816;28;19940;-63
2022/09/22 09:23:07;;;;;;;;;;;13.20;99.90;;;;;;4144694;28;19909;-62
2022/09/22 09:25:16;;;;;;;;;;;13.20;99.90;;;;;;4145780;28;19956;-62
2022/09/22 09:27:23;;;;;;;;;;;13.30;99.90;;;;;;4146605;28;19913;-62
2022/09/22 09:29:28;;;;;;;;;;;13.60;99.90;;;;;;4144982;28;20361;-63
2022/09/22 09:31:36;;;;;;;;;;;13.90;99.90;;;;;;4146354;28;19909;-63
2022/09/22 09:33:40;;;;;;;;;;;14.20;99.90;;;;;;4145361;28;19905;-63
2022/09/22 09:35:45;;;;;;;;;;;14.30;99.90;;;;;;4146642;28;19937;-62
2022/09/22 09:37:46;;;;;;;;;;;14.60;99.90;;;;;;4145301;28;19909;-63
2022/09/22 09:39:47;;;;;;;;;;;14.80;99.90;;;;;;4146795;28;19913;-64
2022/09/22 09:41:48;;;;;;;;;;;14.80;99.90;;;;;;4145291;28;20270;-65
2022/09/22 09:43:50;;;;;;;;;;;14.90;99.90;;;;;;4145905;28;20380;-63
2022/09/22 09:46:12;;;;;;;;;;;14.80;99.90;;;;;;4144679;28;19971;-63
2022/09/22 09:48:32;;;;;;;;;;;14.80;99.90;;;;;;4139147;28;19905;-63
2022/09/22 09:50:34;;;;;;;;;;;14.50;99.90;;;;;;4144882;28;19979;-64
2022/09/22 09:52:37;;;;;;;;;;;14.30;99.90;;;;;;4146082;28;19959;-65
2022/09/22 09:54:42;;;;;;;;;;;14.10;99.90;;;;;;4145225;28;20258;-64
2022/09/22 09:57:18;;;;;;;;;;;13.90;99.90;;;;;;4145906;28;19909;-63
2022/09/22 10:01:46;;;;;;;;;;;14.00;99.90;;;;;;4137115;28;19964;-63
2022/09/22 10:03:53;;;;;;;;;;;14.30;99.90;;;;;;4144879;28;19956;-64
2022/09/22 10:06:03;;;;;;;;;;;14.30;99.90;;;;;;4146155;28;19955;-63
2022/09/22 10:08:15;;;;;;;;;;;14.30;99.90;;;;;;4144674;28;19963;-64
2022/09/22 10:10:28;;;;;;;;;;;14.30;99.90;;;;;;4146523;28;19905;-63
2022/09/22 10:12:30;;;;;;;;;;;14.30;99.90;;;;;;4144886;28;19917;-63
2022/09/22 10:14:32;;;;;;;;;;;14.30;99.90;;;;;;4146275;28;19909;-63
2022/09/22 10:16:34;;;;;;;;;;;14.40;99.90;;;;;;4144793;28;20354;-63
2022/09/22 10:18:38;;;;;;;;;;;14.40;99.90;;;;;;4145821;28;19909;-62
2022/09/22 10:20:39;;;;;;;;;;;14.20;99.90;;;;;;4143751;28;20369;-62
2022/09/22 10:22:41;;;;;;;;;;;13.80;99.90;;;;;;4145692;28;19912;-63
2022/09/22 10:25:11;;;;;;;;;;;13.50;99.90;;;;;;4144639;28;19952;-63
2022/09/22 10:27:19;;;;;;;;;;;13.70;99.90;;;;;;4136912;28;19936;-62
2022/09/22 10:29:20;;;;;;;;;;;13.90;99.90;;;;;;4144796;28;19905;-64
2022/09/22 10:31:26;;;;;;;;;;;13.90;99.90;;;;;;4145798;28;19905;-63
2022/09/22 10:33:28;;;;;;;;;;;13.90;99.90;;;;;;4144658;28;19913;-62
2022/09/22 10:35:29;;;;;;;;;;;14.00;99.90;;;;;;4145958;28;20309;-62
2022/09/22 10:37:30;;;;;;;;;;;14.10;99.90;;;;;;4144625;28;19960;-63
2022/09/22 10:39:43;;;;;;;;;;;14.30;99.90;;;;;;4145629;28;20030;-64
2022/09/22 10:41:45;;;;;;;;;;;14.50;99.90;;;;;;4143294;28;19913;-63
2022/09/22 10:43:49;;;;;;;;;;;14.60;99.90;;;;;;4145417;28;19909;-62
2022/09/22 10:45:58;;;;;;;;;;;14.80;99.90;;;;;;4144594;28;19906;-64
2022/09/22 10:47:59;;;;;;;;;;;14.80;99.90;;;;;;4143145;28;19909;-64
2022/09/22 10:50:18;;;;;;;;;;;14.90;99.90;;;;;;4142424;28;20279;-64
2022/09/22 10:52:19;;;;;;;;;;;15.10;99.90;;;;;;4144887;28;19917;-66
2022/09/22 10:54:37;;;;;;;;;;;15.30;99.90;;;;;;4144521;28;19996;-64
2022/09/22 10:56:40;;;;;;;;;;;15.40;99.90;;;;;;4145176;28;19971;-66
2022/09/22 10:58:53;;;;;;;;;;;15.60;99.90;;;;;;4144751;28;19905;-64
2022/09/22 11:01:00;;;;;;;;;;;15.70;99.90;;;;;;4144914;28;20378;-66
2022/09/22 11:03:07;;;;;;;;;;;15.90;99.90;;;;;;4144830;28;19910;-64
2022/09/22 11:12:14;;;;;;;;;;;15.90;99.90;;;;;;4144994;28;19905;-64
2022/09/22 11:13:16;;;;;;;;;;;14.50;99.90;;;;;;4144129;28;20405;-65
2022/09/22 11:15:52;;;;;;;;;;;14.20;99.90;;;;;;4135718;28;19971;-63
2022/09/22 11:17:53;;;;;;;;;;;14.00;99.90;;;;;;4122835;28;19933;-64
2022/09/22 11:19:54;;;;;;;;;;;13.80;99.90;;;;;;4144905;28;19947;-63
2022/09/22 11:22:08;;;;;;;;;;;13.70;99.90;;;;;;4143890;28;19963;-63
2022/09/22 11:24:18;;;;;;;;;;;13.70;99.90;;;;;;4144803;28;20321;-64
2022/09/22 11:26:27;;;;;;;;;;;13.70;99.90;;;;;;4143669;28;19960;-64
2022/09/22 11:28:38;;;;;;;;;;;13.80;99.90;;;;;;4144590;28;19956;-64
2022/09/22 11:30:48;;;;;;;;;;;13.90;99.90;;;;;;4143952;28;19985;-64
2022/09/22 11:32:56;;;;;;;;;;;14.00;99.90;;;;;;4146584;28;19960;-63
2022/09/22 11:35:00;;;;;;;;;;;14.20;99.90;;;;;;4147149;28;19964;-63
2022/09/22 11:37:24;;;;;;;;;;;14.20;99.90;;;;;;4147982;28;20751;-62
2022/09/22 11:39:30;;;;;;;;;;;14.30;99.90;;;;;;4147403;28;20262;-63
2022/09/22 11:41:41;;;;;;;;;;;14.50;99.90;;;;;;4148513;28;19972;-64
2022/09/22 11:43:45;;;;;;;;;;;14.60;99.90;;;;;;4147103;28;19905;-63
2022/09/22 11:46:03;;;;;;;;;;;14.60;99.90;;;;;;4147644;28;19913;-62
2022/09/22 11:48:15;;;;;;;;;;;14.70;99.90;;;;;;4147007;28;19921;-63
2022/09/22 11:50:39;;;;;;;;;;;14.80;99.90;;;;;;4147639;28;19963;-63
2022/09/22 11:52:42;;;;;;;;;;;14.90;99.90;;;;;;4147431;28;19917;-63
2022/09/22 11:54:44;;;;;;;;;;;15.10;99.90;;;;;;4147349;28;19917;-63
2022/09/22 11:56:54;;;;;;;;;;;15.10;99.90;;;;;;4147116;28;20378;-61
2022/09/22 11:58:58;;;;;;;;;;;15.00;99.90;;;;;;4147522;28;19909;-63
2022/09/22 12:01:03;;;;;;;;;;;14.90;99.90;;;;;;4146643;28;19964;-63
2022/09/22 12:03:09;;;;;;;;;;;14.70;99.90;;;;;;4147743;28;19906;-63
2022/09/22 12:05:19;;;;;;;;;;;14.70;99.90;;;;;;4146901;28;19964;-63
2022/09/22 12:07:25;;;;;;;;;;;14.80;99.90;;;;;;4147755;28;19909;-64
2022/09/22 12:09:29;;;;;;;;;;;14.80;99.90;;;;;;4146926;28;20352;-63
2022/09/22 12:11:33;;;;;;;;;;;14.80;99.90;;;;;;4148590;28;19905;-62
2022/09/22 12:13:35;;;;;;;;;;;14.80;99.90;;;;;;4146490;28;19921;-62
2022/09/22 12:15:57;;;;;;;;;;;14.80;99.90;;;;;;4147397;28;19913;-63
2022/09/22 12:18:09;;;;;;;;;;;14.70;99.90;;;;;;4146723;28;19913;-62
2022/09/22 12:20:31;;;;;;;;;;;14.60;99.90;;;;;;4147839;28;19905;-63
2022/09/22 12:22:35;;;;;;;;;;;14.50;99.90;;;;;;4146386;28;20329;-62